(°C)
18°
17°
17°
17°
16°
16°
16°
(°C)
15°
14°
14°
14°
14°
14°
14°
JZ
JZ
JZ
JZ
JZ
ZJZ
ZSZ
(km/h)
17-31
16-29
14-27
12-22
10-17
7-16
10-20
(mm)
0
0
0
0
0
0
0
(%)
5
10
15
13
10
8
6

Výška Slnka nad obzorom

/ -16.9°
sun-icon
UV 8
05:13
20:01
Posledná štvrť (266°)
01:45
11:54

Správy METAR pre lokalitu Barnstable (KHYA)

Čas Podmienky Teplota/
Rosný bod
Vietor Viditeľnosť Počasie Oblaky Tlak Zmeniť Nespracované
LIFR 18.3°C / 17.2°C 220º 17kt Gust 22kt >10km - Overcast 400ft - KHYA 230123Z 22017G22KT 7SM OVC004 18/17 A2995 RMK AO2 T01830172
IFR 17.8°C / 16.1°C 220º 13kt >10km - Broken Clouds 700ft 1014 - KHYA 230056Z 22013KT 9SM BKN007 18/16 A2995 RMK AO2 SLP142 T01780161
VFR 17.8°C / 15°C 210º 9kt >10km - Clear 1013 - KHYA 222356Z 21009KT 9SM CLR 18/15 A2994 RMK AO2 SLP139 T01780150 10239 20178 53002
VFR 20°C / 16.1°C 210º 10kt >10km - Clear 1013 - KHYA 222256Z 21010KT 10SM CLR 20/16 A2993 RMK AO2 SLP137 T02000161
VFR 21.1°C / 16.1°C 220º 11kt >10km - Clear 1013 - KHYA 222156Z 22011KT 10SM CLR 21/16 A2992 RMK AO2 SLP133 T02110161
VFR 19.4°C / 15°C 190º 10kt >10km - Clear 1013 - KHYA 222056Z 19010KT 10SM CLR 19/15 A2993 RMK AO2 SLP137 T01940150 56019
VFR 21.1°C / 16.1°C 190º 10kt >10km - Clear 1014 - KHYA 221956Z 19010KT 10SM CLR 21/16 A2995 RMK AO2 SLP142 T02110161
VFR 22.2°C / 16.1°C 180º 10kt >10km - Clear 1014 - KHYA 221856Z 18010KT 10SM CLR 22/16 A2997 RMK AO2 SLP148 T02220161
VFR 23.9°C / 16.7°C 200º 10kt >10km - Clear 1015 - KHYA 221756Z 20010KT 10SM CLR 24/17 A2999 RMK AO2 SLP156 T02390167 10250 20200 58009
VFR 23.9°C / 17.2°C 170º 6kt >10km - Clear 1016 - KHYA 221656Z 17006KT 10SM CLR 24/17 A3000 RMK AO2 SLP160 T02390172
VFR 25°C / 18.9°C 210º variable 170º to 240º 10kt Gust 16kt >10km - Clear 1016 - KHYA 221556Z 21010G16KT 170V240 10SM CLR 25/19 A3001 RMK AO2 SLP163 T02500189
VFR 23.3°C / 17.2°C 190º 8kt >10km - Clear 1016 - KHYA 221456Z 19008KT 10SM CLR 23/17 A3002 RMK AO2 SLP165 T02330172 55000
VFR 21.7°C / 16.1°C 200º 7kt >10km - Clear 1016 - KHYA 221356Z 20007KT 10SM CLR 22/16 A3002 RMK AO2 SLP165 T02170161
VFR 20.6°C / 15.6°C 180º 5kt >10km - Clear 1016 - KHYA 221256Z 18005KT 10SM CLR 21/16 A3001 RMK AO2 SLP164 T02060156
VFR 20°C / 15.6°C 210º 6kt >10km - Clear 1016 - KHYA 221156Z 21006KT 9SM CLR 20/16 A3002 RMK AO2 SLP165 T02000156 10200 20161 53004
VFR 18.3°C / 15.6°C 200º 6kt >10km - Clear 1016 - KHYA 221056Z 20006KT 7SM CLR 18/16 A3001 RMK AO2 SLP162 T01830156
VFR 16.7°C / 15°C 200º 5kt >10km - Clear 1015 - KHYA 220956Z 20005KT 10SM CLR 17/15 A3000 RMK AO2 SLP159 T01670150
VFR 16.1°C / 14.4°C 200º 6kt >10km - Clear 1016 - KHYA 220856Z AUTO 20006KT 7SM CLR 16/14 A3000 RMK AO2 SLP161 T01610144 55009
VFR 16.7°C / 14.4°C 200º 5kt >10km - Clear 1016 - KHYA 220756Z AUTO 20005KT 7SM CLR 17/14 A3000 RMK AO2 SLP160 T01670144
VFR 17.2°C / 15°C 200º 5kt >10km - Clear 1016 - KHYA 220656Z AUTO 20005KT 8SM CLR 17/15 A3000 RMK AO2 SLP161 T01720150
VFR 17.2°C / 15.6°C 210º 8kt >10km - Clear 1017 - KHYA 220556Z AUTO 21008KT 8SM CLR 17/16 A3003 RMK AO2 SLP170 T01720156 10194 20172 50007
VFR 18.9°C / 16.7°C 230º 8kt >10km - Clear 1017 - KHYA 220456Z AUTO 23008KT 7SM CLR 19/17 A3004 RMK AO2 SLP171 T01890167 402390133
VFR 18.9°C / 16.7°C 260º 5kt 9700m Mist Vertical Visibility of 0ft. 1017 - KHYA 220356Z AUTO 26005KT 6SM BR CLR 19/17 A3004 RMK AO2 SLP172 T01890167
VFR 18.3°C / 16.7°C 220º 7kt >10km - Clear 1016 - KHYA 220256Z AUTO 22007KT 7SM CLR 18/17 A3001 RMK AO2 SLP163 T01830167 53003

LIFR

18.3°C / 17.2°C

[Viac]
Vietor 220º 17kt Gust 22kt
Viditeľnosť >10km
Počasie -
Oblaky Overcast 400ft
Tlak
Zmeniť -
Nespracované KHYA 230123Z 22017G22KT 7SM OVC004 18/17 A2995 RMK AO2 T01830172

IFR

17.8°C / 16.1°C

[Viac]
Vietor 220º 13kt
Viditeľnosť >10km
Počasie -
Oblaky Broken Clouds 700ft
Tlak 1014
Zmeniť -
Nespracované KHYA 230056Z 22013KT 9SM BKN007 18/16 A2995 RMK AO2 SLP142 T01780161

VFR

17.8°C / 15°C

[Viac]
Vietor 210º 9kt
Viditeľnosť >10km
Počasie -
Oblaky Clear
Tlak 1013
Zmeniť -
Nespracované KHYA 222356Z 21009KT 9SM CLR 18/15 A2994 RMK AO2 SLP139 T01780150 10239 20178 53002

VFR

20°C / 16.1°C

[Viac]
Vietor 210º 10kt
Viditeľnosť >10km
Počasie -
Oblaky Clear
Tlak 1013
Zmeniť -
Nespracované KHYA 222256Z 21010KT 10SM CLR 20/16 A2993 RMK AO2 SLP137 T02000161

VFR

21.1°C / 16.1°C

[Viac]
Vietor 220º 11kt
Viditeľnosť >10km
Počasie -
Oblaky Clear
Tlak 1013
Zmeniť -
Nespracované KHYA 222156Z 22011KT 10SM CLR 21/16 A2992 RMK AO2 SLP133 T02110161

VFR

19.4°C / 15°C

[Viac]
Vietor 190º 10kt
Viditeľnosť >10km
Počasie -
Oblaky Clear
Tlak 1013
Zmeniť -
Nespracované KHYA 222056Z 19010KT 10SM CLR 19/15 A2993 RMK AO2 SLP137 T01940150 56019

VFR

21.1°C / 16.1°C

[Viac]
Vietor 190º 10kt
Viditeľnosť >10km
Počasie -
Oblaky Clear
Tlak 1014
Zmeniť -
Nespracované KHYA 221956Z 19010KT 10SM CLR 21/16 A2995 RMK AO2 SLP142 T02110161

VFR

22.2°C / 16.1°C

[Viac]
Vietor 180º 10kt
Viditeľnosť >10km
Počasie -
Oblaky Clear
Tlak 1014
Zmeniť -
Nespracované KHYA 221856Z 18010KT 10SM CLR 22/16 A2997 RMK AO2 SLP148 T02220161

VFR

23.9°C / 16.7°C

[Viac]
Vietor 200º 10kt
Viditeľnosť >10km
Počasie -
Oblaky Clear
Tlak 1015
Zmeniť -
Nespracované KHYA 221756Z 20010KT 10SM CLR 24/17 A2999 RMK AO2 SLP156 T02390167 10250 20200 58009

VFR

23.9°C / 17.2°C

[Viac]
Vietor 170º 6kt
Viditeľnosť >10km
Počasie -
Oblaky Clear
Tlak 1016
Zmeniť -
Nespracované KHYA 221656Z 17006KT 10SM CLR 24/17 A3000 RMK AO2 SLP160 T02390172

VFR

25°C / 18.9°C

[Viac]
Vietor 210º variable 170º to 240º 10kt Gust 16kt
Viditeľnosť >10km
Počasie -
Oblaky Clear
Tlak 1016
Zmeniť -
Nespracované KHYA 221556Z 21010G16KT 170V240 10SM CLR 25/19 A3001 RMK AO2 SLP163 T02500189

VFR

23.3°C / 17.2°C

[Viac]
Vietor 190º 8kt
Viditeľnosť >10km
Počasie -
Oblaky Clear
Tlak 1016
Zmeniť -
Nespracované KHYA 221456Z 19008KT 10SM CLR 23/17 A3002 RMK AO2 SLP165 T02330172 55000

VFR

21.7°C / 16.1°C

[Viac]
Vietor 200º 7kt
Viditeľnosť >10km
Počasie -
Oblaky Clear
Tlak 1016
Zmeniť -
Nespracované KHYA 221356Z 20007KT 10SM CLR 22/16 A3002 RMK AO2 SLP165 T02170161

VFR

20.6°C / 15.6°C

[Viac]
Vietor 180º 5kt
Viditeľnosť >10km
Počasie -
Oblaky Clear
Tlak 1016
Zmeniť -
Nespracované KHYA 221256Z 18005KT 10SM CLR 21/16 A3001 RMK AO2 SLP164 T02060156

VFR

20°C / 15.6°C

[Viac]
Vietor 210º 6kt
Viditeľnosť >10km
Počasie -
Oblaky Clear
Tlak 1016
Zmeniť -
Nespracované KHYA 221156Z 21006KT 9SM CLR 20/16 A3002 RMK AO2 SLP165 T02000156 10200 20161 53004

VFR

18.3°C / 15.6°C

[Viac]
Vietor 200º 6kt
Viditeľnosť >10km
Počasie -
Oblaky Clear
Tlak 1016
Zmeniť -
Nespracované KHYA 221056Z 20006KT 7SM CLR 18/16 A3001 RMK AO2 SLP162 T01830156

VFR

16.7°C / 15°C

[Viac]
Vietor 200º 5kt
Viditeľnosť >10km
Počasie -
Oblaky Clear
Tlak 1015
Zmeniť -
Nespracované KHYA 220956Z 20005KT 10SM CLR 17/15 A3000 RMK AO2 SLP159 T01670150

VFR

16.1°C / 14.4°C

[Viac]
Vietor 200º 6kt
Viditeľnosť >10km
Počasie -
Oblaky Clear
Tlak 1016
Zmeniť -
Nespracované KHYA 220856Z AUTO 20006KT 7SM CLR 16/14 A3000 RMK AO2 SLP161 T01610144 55009

VFR

16.7°C / 14.4°C

[Viac]
Vietor 200º 5kt
Viditeľnosť >10km
Počasie -
Oblaky Clear
Tlak 1016
Zmeniť -
Nespracované KHYA 220756Z AUTO 20005KT 7SM CLR 17/14 A3000 RMK AO2 SLP160 T01670144

VFR

17.2°C / 15°C

[Viac]
Vietor 200º 5kt
Viditeľnosť >10km
Počasie -
Oblaky Clear
Tlak 1016
Zmeniť -
Nespracované KHYA 220656Z AUTO 20005KT 8SM CLR 17/15 A3000 RMK AO2 SLP161 T01720150

VFR

17.2°C / 15.6°C

[Viac]
Vietor 210º 8kt
Viditeľnosť >10km
Počasie -
Oblaky Clear
Tlak 1017
Zmeniť -
Nespracované KHYA 220556Z AUTO 21008KT 8SM CLR 17/16 A3003 RMK AO2 SLP170 T01720156 10194 20172 50007

VFR

18.9°C / 16.7°C

[Viac]
Vietor 230º 8kt
Viditeľnosť >10km
Počasie -
Oblaky Clear
Tlak 1017
Zmeniť -
Nespracované KHYA 220456Z AUTO 23008KT 7SM CLR 19/17 A3004 RMK AO2 SLP171 T01890167 402390133

VFR

18.9°C / 16.7°C

[Viac]
Vietor 260º 5kt
Viditeľnosť 9700m
Počasie Mist
Oblaky Vertical Visibility of 0ft.
Tlak 1017
Zmeniť -
Nespracované KHYA 220356Z AUTO 26005KT 6SM BR CLR 19/17 A3004 RMK AO2 SLP172 T01890167

VFR

18.3°C / 16.7°C

[Viac]
Vietor 220º 7kt
Viditeľnosť >10km
Počasie -
Oblaky Clear
Tlak 1016
Zmeniť -
Nespracované KHYA 220256Z AUTO 22007KT 7SM CLR 18/17 A3001 RMK AO2 SLP163 T01830167 53003

Správy TAF pre lokalitu Barnstable (KHYA)

From till


From till Wind 220º 12kt. Visibility 10km or more. Few Clouds 21000ft.
From till Wind 220º 11kt. Gust 18kt. Visibility 3200m. Mist . Broken Clouds 1500ft.
From till Wind 330º 11kt. Gust 23kt. Visibility 3200m. Mist . Overcast 1500ft.
From till Wind 340º 12kt. Gust 21kt. Visibility 10km or more. Overcast 2300ft.
From till Wind 360º 13kt. Gust 22kt. Visibility 10km or more. Broken Clouds 6000ft.

Nespracované: KHYA 222320Z 2300/2324 22012KT P6SM FEW210 FM230100 22011G18KT 2SM BR BKN015 FM230900 33011G23KT 2SM BR OVC015 FM231000 34012G21KT P6SM OVC023 FM231400 36013G22KT P6SM BKN060

Radar a krátkodobá predpoveď zrážok pre Barnstable

Mrholenie
Slabý
Mierne
Ťažké
Veľmi ťažké
Krúpy

Značka polohy je umiestnená na Barnstable. Táto animácia ukazuje zrážky pozorované radarom za poslednú hodinu a tiež 1h predpoveď. Mrholenie alebo slabé sneženie môže byť pre radar neviditeľné. Intenzita zrážok je farebne označená od svetlomodrej po oranžovú.

Aktuálne satelitné snímky pre lokalitu Barnstable, Spojené štáty americké

Značka polohy je umiestnená naBarnstable. [Viac]

Satelitné snímky zhotovované v reálnom čase využívajú viditeľné svetlo počas dňa a infračervené žiarenie počas noci. Vzhľadom na to, že infračervené žiarenie zisťuje teplotné rozdiely, snímka v noci nie je tmavá. Nízke oblaky a hmlu je, žiaľ, ťažké odlíšiť od prízemných teplôt, preto môžu byť počas noci takmer neviditeľné. Meteosat satelitné snímky pre Európu sú aktualizované v reálnom čase každých 5 minút. Snímky z GOES-16/GOES-17 (Severná a Južná Amerika) a Himawari (Ázia) sú aktualizované každých 10 minút.

Späť nahor